createdAt,value
2023-04-15T00:02:00.233Z,99794.53
2023-04-15T00:04:28.054Z,99788.22
2023-04-15T00:06:54.958Z,99790.56
2023-04-15T00:09:21.684Z,99786.72
2023-04-15T00:11:48.248Z,99794.19
2023-04-15T00:14:14.840Z,99794.66
2023-04-15T00:16:41.661Z,99793.50
2023-04-15T00:19:08.512Z,99790.69
2023-04-15T00:21:35.089Z,99796.13
2023-04-15T00:24:02.040Z,99792.78
2023-04-15T00:26:28.680Z,99787.53
2023-04-15T00:28:55.255Z,99783.44
2023-04-15T00:31:22.099Z,99784.72
2023-04-15T00:33:48.900Z,99775.28
2023-04-15T00:36:15.652Z,99773.50
2023-04-15T00:38:42.224Z,99782.28
2023-04-15T00:41:11.044Z,99786.84
2023-04-15T00:43:38.345Z,99790.22
2023-04-15T00:46:06.110Z,99786.72
2023-04-15T00:48:32.840Z,99790.44
2023-04-15T00:50:59.484Z,99785.88
2023-04-15T00:53:26.072Z,99773.31
2023-04-15T00:55:52.930Z,99783.00
2023-04-15T00:58:19.611Z,99782.16
2023-04-15T01:00:46.904Z,99774.94
2023-04-15T01:03:14.288Z,99768.75
2023-04-15T01:05:41.805Z,99758.84
2023-04-15T01:08:08.410Z,99776.56
2023-04-15T01:10:36.120Z,99776.34
2023-04-15T01:13:04.118Z,99763.72
2023-04-15T01:15:32.228Z,99773.66
2023-04-15T01:17:59.576Z,99762.94
2023-04-15T01:20:27.661Z,99756.97
2023-04-15T01:22:55.012Z,99758.00
2023-04-15T01:25:34.936Z,99765.50
2023-04-15T01:28:01.610Z,99773.31
2023-04-15T01:30:28.169Z,99774.09
2023-04-15T01:32:55.135Z,99762.56
2023-04-15T01:35:22.695Z,99777.28
2023-04-15T01:37:49.607Z,99769.44
2023-04-15T01:40:16.745Z,99761.41
2023-04-15T01:42:43.310Z,99765.94
2023-04-15T01:45:10.225Z,99756.84
2023-04-15T01:47:36.791Z,99749.81
2023-04-15T01:50:03.541Z,99745.28
2023-04-15T01:52:30.563Z,99741.78
2023-04-15T01:54:57.288Z,99753.59
2023-04-15T01:57:23.744Z,99749.94
2023-04-15T01:59:50.283Z,99751.00
2023-04-15T02:02:17.601Z,99745.06
2023-04-15T02:04:44.844Z,99747.97
2023-04-15T02:07:11.458Z,99750.66
2023-04-15T02:09:38.796Z,99752.31
2023-04-15T02:12:06.033Z,99749.81
2023-04-15T02:14:32.732Z,99746.09
2023-04-15T02:17:06.810Z,99739.78
2023-04-15T02:19:36.761Z,99744.59
2023-04-15T02:22:03.325Z,99745.28
2023-04-15T02:24:30.831Z,99752.50
2023-04-15T02:26:57.723Z,99751.94
2023-04-15T02:29:24.403Z,99744.69
2023-04-15T02:31:51.274Z,99749.03
2023-04-15T02:34:17.916Z,99747.63
2023-04-15T02:36:44.458Z,99759.75
2023-04-15T02:39:12.881Z,99750.06
2023-04-15T02:41:39.768Z,99745.97
2023-04-15T02:44:11.239Z,99754.03
2023-04-15T02:46:38.010Z,99757.31
2023-04-15T02:49:04.619Z,99752.75
2023-04-15T02:51:32.375Z,99763.50
2023-04-15T02:53:59.224Z,99763.72
2023-04-15T02:56:25.839Z,99761.03
2023-04-15T02:58:52.438Z,99759.16
2023-04-15T03:01:19.309Z,99757.31
2023-04-15T03:03:45.947Z,99755.69
2023-04-15T03:06:12.543Z,99761.63
2023-04-15T03:08:39.113Z,99751.94
2023-04-15T03:11:05.712Z,99755.19
2023-04-15T03:13:32.300Z,99759.75
2023-04-15T03:15:58.969Z,99762.44
2023-04-15T03:18:25.648Z,99771.31
2023-04-15T03:20:52.223Z,99764.31
2023-04-15T03:23:18.822Z,99752.75
2023-04-15T03:25:45.930Z,99753.59
2023-04-15T03:28:12.574Z,99743.28
2023-04-15T03:30:39.126Z,99744.94
2023-04-15T03:33:05.759Z,99743.28
2023-04-15T03:35:32.402Z,99737.94
2023-04-15T03:37:58.911Z,99743.28
2023-04-15T03:40:25.595Z,99744.34
2023-04-15T03:42:52.114Z,99750.75
2023-04-15T03:45:18.795Z,99743.75
2023-04-15T03:47:45.621Z,99742.94
2023-04-15T03:50:12.724Z,99740.59
2023-04-15T03:52:39.399Z,99734.66
2023-04-15T03:55:06.168Z,99740.47
2023-04-15T03:57:32.764Z,99736.28
2023-04-15T03:59:59.385Z,99735.94
2023-04-15T04:02:26.176Z,99754.94
2023-04-15T04:04:53.126Z,99749.00
2023-04-15T04:07:19.779Z,99754.34
2023-04-15T04:09:47.439Z,99747.13
2023-04-15T04:12:14.308Z,99757.50
2023-04-15T04:14:40.922Z,99745.06
2023-04-15T04:17:07.642Z,99751.66
2023-04-15T04:19:34.226Z,99748.53
2023-04-15T04:22:01.139Z,99757.03
2023-04-15T04:24:27.727Z,99755.88
2023-04-15T04:26:54.361Z,99751.56
2023-04-15T04:29:21.002Z,99752.59
2023-04-15T04:31:48.867Z,99757.41
2023-04-15T04:34:16.276Z,99755.19
2023-04-15T04:36:42.852Z,99750.25
2023-04-15T04:39:09.451Z,99751.09
2023-04-15T04:41:36.141Z,99749.44
2023-04-15T04:44:02.717Z,99748.66
2023-04-15T04:46:29.328Z,99747.81
2023-04-15T04:48:55.926Z,99748.66
2023-04-15T04:51:22.629Z,99743.50
2023-04-15T04:53:49.088Z,99753.59
2023-04-15T04:56:15.693Z,99748.66
2023-04-15T04:58:42.618Z,99740.00
2023-04-15T05:01:09.392Z,99744.75
2023-04-15T05:03:36.153Z,99754.88
2023-04-15T05:06:06.240Z,99745.38
2023-04-15T05:08:33.132Z,99749.56
2023-04-15T05:10:59.730Z,99753.28
2023-04-15T05:13:26.538Z,99753.28
2023-04-15T05:15:53.475Z,99745.38
2023-04-15T05:18:20.741Z,99744.19
2023-04-15T05:20:47.335Z,99750.03
2023-04-15T05:23:13.922Z,99747.34
2023-04-15T05:25:40.694Z,99743.84
2023-04-15T05:28:07.197Z,99753.06
2023-04-15T05:30:33.943Z,99749.81
2023-04-15T05:33:00.456Z,99750.16
2023-04-15T05:35:27.316Z,99738.22
2023-04-15T05:37:53.840Z,99746.53
2023-04-15T05:40:20.901Z,99744.88
2023-04-15T05:42:47.474Z,99736.25
2023-04-15T05:45:14.115Z,99747.13
2023-04-15T05:47:40.679Z,99745.47
2023-04-15T05:50:07.481Z,99739.31
2023-04-15T05:52:34.019Z,99747.72
2023-04-15T05:55:00.635Z,99746.28
2023-04-15T05:57:27.174Z,99743.03
2023-04-15T05:59:53.827Z,99736.81
2023-04-15T06:02:20.649Z,99745.94
2023-04-15T06:04:47.548Z,99739.75
2023-04-15T06:07:14.274Z,99752.13
2023-04-15T06:09:41.302Z,99740.13
2023-04-15T06:12:12.297Z,99742.09
2023-04-15T06:14:39.505Z,99746.66
2023-04-15T06:17:06.388Z,99740.25
2023-04-15T06:19:33.528Z,99741.91
2023-04-15T06:22:00.271Z,99743.28
2023-04-15T06:24:26.807Z,99734.34
2023-04-15T06:26:53.357Z,99743.13
2023-04-15T06:29:19.998Z,99748.25
2023-04-15T06:31:48.254Z,99744.53
2023-04-15T06:34:14.812Z,99750.31
2023-04-15T06:36:41.359Z,99746.94
2023-04-15T06:39:07.891Z,99739.84
2023-04-15T06:41:35.577Z,99734.81
2023-04-15T06:44:02.310Z,99735.63
2023-04-15T06:46:28.746Z,99730.50
2023-04-15T06:48:55.289Z,99730.06
2023-04-15T06:51:23.003Z,99735.44
2023-04-15T06:53:50.518Z,99733.16
2023-04-15T06:56:17.135Z,99733.31
2023-04-15T06:58:43.671Z,99738.31
2023-04-15T07:01:10.509Z,99741.34
2023-04-15T07:03:37.248Z,99747.38
2023-04-15T07:06:06.679Z,99759.09
2023-04-15T07:08:33.900Z,99776.94
2023-04-15T07:11:01.710Z,99775.94
2023-04-15T07:13:28.377Z,99777.94
2023-04-15T07:15:54.921Z,99785.19
2023-04-15T07:18:21.564Z,99779.22
2023-04-15T07:20:48.429Z,99782.91
2023-04-15T07:23:15.054Z,99772.03
2023-04-15T07:25:41.875Z,99781.66
2023-04-15T07:28:08.380Z,99782.66
2023-04-15T07:30:35.028Z,99780.50
2023-04-15T07:33:02.347Z,99781.44
2023-04-15T07:35:29.604Z,99793.97
2023-04-15T07:37:56.497Z,99788.25
2023-04-15T07:40:23.172Z,99799.47
2023-04-15T07:42:49.952Z,99791.63
2023-04-15T07:45:17.137Z,99793.06
2023-04-15T07:47:43.765Z,99790.69
2023-04-15T07:50:13.566Z,99794.66
2023-04-15T07:52:41.607Z,99794.09
2023-04-15T07:55:09.050Z,99796.44
2023-04-15T07:57:36.425Z,99792.38
2023-04-15T08:00:08.096Z,99797.16
2023-04-15T08:02:40.454Z,99798.78
2023-04-15T08:05:07.848Z,99792.50
2023-04-15T08:07:38.036Z,99798.09
2023-04-15T08:10:05.299Z,99798.56
2023-04-15T08:12:34.513Z,99794.81
2023-04-15T08:15:02.174Z,99797.19
2023-04-15T08:17:28.783Z,99800.09
2023-04-15T08:19:55.525Z,99797.41
2023-04-15T08:22:22.724Z,99802.22
2023-04-15T08:24:49.372Z,99807.84
2023-04-15T08:27:16.210Z,99803.50
2023-04-15T08:29:46.135Z,99815.13
2023-04-15T08:32:12.944Z,99824.75
2023-04-15T08:34:40.086Z,99827.09
2023-04-15T08:37:08.372Z,99820.31
2023-04-15T08:39:35.337Z,99824.09
2023-04-15T08:42:03.928Z,99846.63
2023-04-15T08:44:33.543Z,99849.31
2023-04-15T08:47:03.533Z,99842.41
2023-04-15T08:49:30.700Z,99834.81
2023-04-15T08:51:59.830Z,99827.34
2023-04-15T08:54:27.483Z,99821.59
2023-04-15T08:56:54.754Z,99840.19
2023-04-15T08:59:22.530Z,99846.38
2023-04-15T09:01:51.146Z,99832.69
2023-04-15T09:04:18.156Z,99841.81
2023-04-15T09:06:44.990Z,99847.19
2023-04-15T09:09:13.337Z,99832.78
2023-04-15T09:11:40.562Z,99828.50
2023-04-15T09:14:07.191Z,99829.53
2023-04-15T09:17:04.072Z,99838.19
2023-04-15T09:19:31.804Z,99837.59
2023-04-15T09:21:59.677Z,99841.34
2023-04-15T09:24:37.592Z,99838.31
2023-04-15T09:27:04.675Z,99843.81
2023-04-15T09:29:31.740Z,99845.44
2023-04-15T09:32:14.112Z,99854.53
2023-04-15T09:34:40.798Z,99861.09
2023-04-15T09:37:08.053Z,99865.47
2023-04-15T09:40:01.360Z,99873.56
2023-04-15T09:42:29.568Z,99881.66
2023-04-15T09:44:56.232Z,99875.44
2023-04-15T09:47:32.954Z,99873.47
2023-04-15T09:50:01.202Z,99866.09
2023-04-15T09:52:29.085Z,99867.75
2023-04-15T09:54:58.673Z,99867.25
2023-04-15T09:57:25.539Z,99869.38
2023-04-15T09:59:52.614Z,99860.47
2023-04-15T10:02:23.275Z,99866.47
2023-04-15T10:04:50.885Z,99860.03
2023-04-15T10:07:20.742Z,99867.03
2023-04-15T10:09:49.275Z,99873.00
2023-04-15T10:12:20.388Z,99882.22
2023-04-15T10:14:56.855Z,99872.88
2023-04-15T10:17:27.912Z,99869.81
2023-04-15T10:19:55.965Z,99870.66
2023-04-15T10:22:23.492Z,99867.72
2023-04-15T10:24:51.280Z,99872.28
2023-04-15T10:27:18.219Z,99872.88
2023-04-15T10:29:44.964Z,99874.50
2023-04-15T10:32:11.665Z,99873.25
2023-04-15T10:34:38.586Z,99870.84
2023-04-15T10:37:05.318Z,99863.03
2023-04-15T10:39:34.934Z,99871.72
2023-04-15T10:42:20.246Z,99873.06
2023-04-15T10:44:54.075Z,99870.72
2023-04-15T10:47:22.211Z,99873.34
2023-04-15T10:49:52.681Z,99872.50
2023-04-15T10:52:24.391Z,99869.91
2023-04-15T10:55:01.982Z,99870.66
2023-04-15T10:57:38.677Z,99877.28
2023-04-15T11:00:09.052Z,99876.44
2023-04-15T11:02:42.076Z,99881.81
2023-04-15T11:05:10.660Z,99883.13
2023-04-15T11:07:37.427Z,99890.13
2023-04-15T11:10:05.023Z,99887.50
2023-04-15T11:12:38.988Z,99892.81
2023-04-15T11:15:27.640Z,99891.03
2023-04-15T11:17:54.290Z,99897.28
2023-04-15T11:20:21.331Z,99901.03
2023-04-15T11:23:14.800Z,99906.38
2023-04-15T11:25:41.941Z,99911.03
2023-04-15T11:28:08.629Z,99907.53
2023-04-15T11:30:35.983Z,99915.69
2023-04-15T11:33:05.354Z,99927.03
2023-04-15T11:35:32.596Z,99914.06
2023-04-15T11:38:02.961Z,99925.88
2023-04-15T11:40:31.569Z,99929.97
2023-04-15T11:43:22.195Z,99927.03
2023-04-15T11:45:48.850Z,99934.06
2023-04-15T11:48:15.659Z,99933.09
2023-04-15T11:50:42.259Z,99931.25
2023-04-15T11:53:11.759Z,99936.38
2023-04-15T11:55:53.327Z,99947.84
2023-04-15T11:58:21.511Z,99946.09
2023-04-15T12:00:53.550Z,99945.41
2023-04-15T12:03:24.903Z,99957.44
2023-04-15T12:06:20.744Z,99961.44
2023-04-15T12:09:18.373Z,99965.84
2023-04-15T12:11:50.356Z,99957.47
2023-04-15T12:14:16.880Z,99961.88
2023-04-15T12:16:48.718Z,99953.94
2023-04-15T12:19:25.314Z,99963.16
2023-04-15T12:21:54.152Z,99960.16
2023-04-15T12:24:23.182Z,99964.22
2023-04-15T12:26:55.130Z,99964.31
2023-04-15T12:29:26.816Z,99968.41
2023-04-15T12:31:55.835Z,99971.09
2023-04-15T12:34:44.935Z,99974.34
2023-04-15T12:37:16.206Z,99968.75
2023-04-15T12:39:44.366Z,99978.47
2023-04-15T12:42:11.786Z,99970.16
2023-04-15T12:44:39.661Z,99985.00
2023-04-15T12:47:08.201Z,99984.75
2023-04-15T12:49:35.420Z,99989.09
2023-04-15T12:52:03.224Z,99994.25
2023-04-15T12:54:31.549Z,99997.50
2023-04-15T12:56:58.747Z,100004.75
2023-04-15T12:59:25.414Z,100002.66
2023-04-15T13:01:52.835Z,100002.44
2023-04-15T13:04:20.787Z,100018.69
2023-04-15T13:06:47.874Z,100016.19
2023-04-15T13:09:15.854Z,100008.13
2023-04-15T13:11:42.780Z,100015.41
2023-04-15T13:14:09.765Z,100015.16
2023-04-15T13:16:36.541Z,100018.69
2023-04-15T13:19:04.387Z,100021.13
2023-04-15T13:21:35.336Z,100021.13
2023-04-15T13:24:03.082Z,100019.84
2023-04-15T13:26:29.933Z,100027.66
2023-04-15T13:28:56.880Z,100029.91
2023-04-15T13:31:23.460Z,100035.38
2023-04-15T13:33:50.067Z,100029.19
2023-04-15T13:36:16.767Z,100033.47
2023-04-15T13:38:43.325Z,100038.66
2023-04-15T13:41:09.941Z,100043.31
2023-04-15T13:43:36.738Z,100038.75
2023-04-15T13:46:03.428Z,100047.66
2023-04-15T13:48:30.126Z,100045.88
2023-04-15T13:50:56.620Z,100039.44
2023-04-15T13:53:28.169Z,100044.66
2023-04-15T13:56:05.926Z,100043.63
2023-04-15T13:58:32.641Z,100053.09
2023-04-15T14:00:59.186Z,100050.72
2023-04-15T14:03:26.079Z,100049.78
2023-04-15T14:05:56.182Z,100056.31
2023-04-15T14:08:23.838Z,100053.13
2023-04-15T14:10:50.519Z,100056.16
2023-04-15T14:13:17.002Z,100054.63
2023-04-15T14:15:43.555Z,100061.00
2023-04-15T14:18:10.117Z,100065.94
2023-04-15T14:20:36.665Z,100064.94
2023-04-15T14:23:03.203Z,100069.88
2023-04-15T14:25:33.720Z,100075.63
2023-04-15T14:28:01.311Z,100071.88
2023-04-15T14:30:27.969Z,100077.59
2023-04-15T14:32:54.498Z,100085.16
2023-04-15T14:35:21.110Z,100074.25
2023-04-15T14:37:47.599Z,100084.75
2023-04-15T14:40:14.200Z,100084.63
2023-04-15T14:42:40.758Z,100087.13
2023-04-15T14:45:07.909Z,100090.97
2023-04-15T14:47:34.563Z,100101.50
2023-04-15T14:50:01.139Z,100099.28
2023-04-15T14:52:27.733Z,100103.28
2023-04-15T14:54:54.292Z,100105.28
2023-04-15T14:57:20.831Z,100096.69
2023-04-15T14:59:47.485Z,100106.97
2023-04-15T15:02:17.299Z,100101.00
2023-04-15T15:04:53.167Z,100100.19
2023-04-15T15:07:19.848Z,100098.38
2023-04-15T15:09:46.392Z,100095.75
2023-04-15T15:12:13.016Z,100108.88
2023-04-15T15:14:39.513Z,100104.75
2023-04-15T15:17:12.229Z,100102.88
2023-04-15T15:19:49.923Z,100109.97
2023-04-15T15:22:44.094Z,100108.81
2023-04-15T15:25:11.075Z,100113.72
2023-04-15T15:27:38.400Z,100114.63
2023-04-15T15:30:06.924Z,100120.06
2023-04-15T15:32:33.639Z,100111.25
2023-04-15T15:35:00.246Z,100117.84
2023-04-15T15:37:26.874Z,100113.81
2023-04-15T15:39:53.447Z,100120.66
2023-04-15T15:42:20.073Z,100124.44
2023-04-15T15:44:46.664Z,100120.72
2023-04-15T15:47:13.257Z,100120.16
2023-04-15T15:49:39.992Z,100116.44
2023-04-15T15:52:06.833Z,100121.56
2023-04-15T15:54:33.739Z,100130.19
2023-04-15T15:57:00.468Z,100130.19
2023-04-15T15:59:27.565Z,100123.13
2023-04-15T16:01:54.306Z,100128.53
2023-04-15T16:04:21.159Z,100124.78
2023-04-15T16:06:48.543Z,100126.38
2023-04-15T16:09:15.333Z,100133.44
2023-04-15T16:11:41.992Z,100130.47
2023-04-15T16:14:08.647Z,100134.38
2023-04-15T16:16:35.782Z,100135.69
2023-04-15T16:19:02.693Z,100148.66
2023-04-15T16:21:29.580Z,100148.06
2023-04-15T16:23:56.271Z,100151.13
2023-04-15T16:26:23.347Z,100152.16
2023-04-15T16:28:49.994Z,100153.47
2023-04-15T16:31:16.575Z,100156.53
2023-04-15T16:33:43.214Z,100147.00
2023-04-15T16:36:09.831Z,100167.38
2023-04-15T16:38:36.469Z,100168.63
2023-04-15T16:41:03.041Z,100168.47
2023-04-15T16:43:29.778Z,100160.78
2023-04-15T16:45:56.611Z,100167.50
2023-04-15T16:48:23.317Z,100168.81
2023-04-15T16:50:49.888Z,100180.00
2023-04-15T16:53:16.616Z,100178.81
2023-04-15T16:55:43.308Z,100180.94
2023-04-15T16:58:09.837Z,100186.75
2023-04-15T17:00:37.078Z,100183.91
2023-04-15T17:03:06.167Z,100187.34
2023-04-15T17:05:33.253Z,100184.88
2023-04-15T17:07:59.910Z,100197.00
2023-04-15T17:10:26.842Z,100198.00
2023-04-15T17:12:56.333Z,100207.34
2023-04-15T17:15:23.016Z,100206.19
2023-04-15T17:17:49.744Z,100211.19
2023-04-15T17:20:17.669Z,100214.06
2023-04-15T17:22:46.175Z,100226.19
2023-04-15T17:25:14.003Z,100216.34
2023-04-15T17:27:40.879Z,100224.72
2023-04-15T17:30:08.542Z,100226.00
2023-04-15T17:32:35.599Z,100231.66
2023-04-15T17:35:06.559Z,100229.31
2023-04-15T17:37:36.497Z,100235.50
2023-04-15T17:40:04.036Z,100244.34
2023-04-15T17:42:31.435Z,100244.34
2023-04-15T17:44:57.958Z,100255.13
2023-04-15T17:47:24.623Z,100253.38
2023-04-15T17:49:51.334Z,100247.38
2023-04-15T17:52:17.993Z,100254.88
2023-04-15T17:54:46.102Z,100260.97
2023-04-15T17:57:12.783Z,100262.53
2023-04-15T17:59:44.036Z,100263.81
2023-04-15T18:02:11.808Z,100275.28
2023-04-15T18:04:39.270Z,100277.69
2023-04-15T18:07:06.521Z,100277.94
2023-04-15T18:09:33.165Z,100280.63
2023-04-15T18:11:59.689Z,100286.25
2023-04-15T18:14:34.097Z,100289.03
2023-04-15T18:17:02.415Z,100298.25
2023-04-15T18:19:30.399Z,100294.69
2023-04-15T18:21:57.062Z,100301.16
2023-04-15T18:24:23.617Z,100303.03
2023-04-15T18:26:50.312Z,100302.31
2023-04-15T18:29:17.050Z,100308.22
2023-04-15T18:31:43.959Z,100309.84
2023-04-15T18:34:10.942Z,100319.50
2023-04-15T18:36:37.773Z,100323.78
2023-04-15T18:39:12.631Z,100325.88
2023-04-15T18:41:39.443Z,100318.84
2023-04-15T18:44:06.362Z,100336.94
2023-04-15T18:46:32.994Z,100337.19
2023-04-15T18:48:59.598Z,100334.47
2023-04-15T18:51:26.275Z,100341.84
2023-04-15T18:53:52.858Z,100345.06
2023-04-15T18:56:19.502Z,100350.78
2023-04-15T18:59:09.276Z,100350.47
2023-04-15T19:01:33.137Z,100358.06
2023-04-15T19:03:59.917Z,100364.19
2023-04-15T19:06:27.420Z,100367.97
2023-04-15T19:08:54.427Z,100372.81
2023-04-15T19:11:21.052Z,100375.50
2023-04-15T19:13:47.654Z,100377.66
2023-04-15T19:16:14.304Z,100387.47
2023-04-15T19:18:40.860Z,100380.94
2023-04-15T19:21:07.649Z,100387.47
2023-04-15T19:23:34.359Z,100394.97
2023-04-15T19:26:01.109Z,100390.94
2023-04-15T19:28:28.464Z,100394.47
2023-04-15T19:30:55.375Z,100394.41
2023-04-15T19:33:22.212Z,100405.44
2023-04-15T19:35:50.217Z,100400.28
2023-04-15T21:52:30.314Z,100501.25
2023-04-15T21:54:56.906Z,100506.53
2023-04-15T21:57:23.426Z,100508.88
2023-04-15T21:59:50.006Z,100511.81
2023-04-15T22:02:16.846Z,100520.94
2023-04-15T22:04:43.587Z,100523.06
2023-04-15T22:07:10.106Z,100526.22
2023-04-15T22:09:36.684Z,100524.25
2023-04-15T22:12:04.417Z,100528.00
2023-04-15T22:14:31.144Z,100530.38
2023-04-15T22:16:57.642Z,100531.84
2023-04-15T22:19:24.322Z,100531.53
2023-04-15T22:21:51.369Z,100529.50
2023-04-15T22:24:38.238Z,100526.94
2023-04-15T22:27:04.584Z,100540.06
2023-04-15T22:29:31.229Z,100530.56
2023-04-15T22:31:58.061Z,100529.16
2023-04-15T22:34:24.720Z,100541.28
2023-04-15T22:36:51.977Z,100535.47
2023-04-15T22:39:19.986Z,100545.13
2023-04-15T22:41:46.909Z,100546.88
2023-04-15T22:44:13.546Z,100549.81
2023-04-15T22:46:40.038Z,100552.16
2023-04-15T22:49:10.673Z,100556.16
2023-04-15T22:51:38.302Z,100554.84
2023-04-15T22:54:04.942Z,100558.03
2023-04-15T22:56:31.470Z,100547.72
2023-04-15T22:58:58.077Z,100560.47
2023-04-15T23:01:24.626Z,100568.47
2023-04-15T23:03:56.729Z,100567.53
2023-04-15T23:06:31.556Z,100565.53
2023-04-15T23:08:58.148Z,100571.13
2023-04-15T23:11:24.744Z,100578.66
2023-04-15T23:13:51.335Z,100583.00
2023-04-15T23:16:17.913Z,100584.88
2023-04-15T23:18:44.555Z,100583.75
2023-04-15T23:21:11.210Z,100591.69
2023-04-15T23:23:37.707Z,100586.19
2023-04-15T23:26:04.436Z,100585.22
2023-04-15T23:28:31.224Z,100591.34
2023-04-15T23:31:00.327Z,100590.72
2023-04-15T23:33:27.481Z,100596.13
2023-04-15T23:35:54.065Z,100593.66
2023-04-15T23:38:20.724Z,100599.88
2023-04-15T23:40:47.227Z,100599.81
2023-04-15T23:43:13.768Z,100601.53
2023-04-15T23:45:40.397Z,100600.09
2023-04-15T23:48:07.161Z,100603.56
2023-04-15T23:50:33.898Z,100602.81
2023-04-15T23:53:00.370Z,100602.97
2023-04-15T23:55:27.002Z,100602.44
2023-04-15T23:57:53.506Z,100599.09
